createdAt,value
2023-01-10T00:09:19.850Z,100643.19
2023-01-10T00:25:36.398Z,100668.22
2023-01-10T00:30:57.747Z,100672.75
2023-01-10T00:41:29.232Z,100679.19
2023-01-10T00:46:27.657Z,100694.34
2023-01-10T00:51:24.698Z,100702.28
2023-01-10T00:56:21.534Z,100714.38
2023-01-10T01:01:18.820Z,100725.75
2023-01-10T01:06:20.329Z,100726.69
2023-01-10T01:16:50.150Z,100755.47
2023-01-10T01:21:59.798Z,100765.28
2023-01-10T01:26:56.849Z,100787.03
2023-01-10T01:31:53.648Z,100794.56
2023-01-10T01:36:51.609Z,100798.50
2023-01-10T01:42:01.970Z,100808.66
2023-01-10T01:47:10.890Z,100839.03
2023-01-10T01:52:16.953Z,100844.53
2023-01-10T01:57:16.979Z,100853.38
2023-01-10T02:02:19.870Z,100860.47
2023-01-10T02:07:18.874Z,100874.47
2023-01-10T02:12:15.377Z,100881.59
2023-01-10T02:17:11.875Z,100884.03
2023-01-10T02:22:27.607Z,100895.41
2023-01-10T02:27:28.178Z,100905.06
2023-01-10T02:32:41.707Z,100912.84
2023-01-10T02:37:44.662Z,100924.06
2023-01-10T02:42:52.347Z,100924.19
2023-01-10T02:47:48.781Z,100932.22
2023-01-10T02:52:49.815Z,100947.09
2023-01-10T02:58:04.149Z,100942.72
2023-01-10T03:03:16.192Z,100948.19
2023-01-10T03:08:30.995Z,100949.97
2023-01-10T03:13:30.610Z,100958.00
2023-01-10T03:18:28.254Z,100959.03
2023-01-10T03:23:31.818Z,100965.09
2023-01-10T03:28:31.908Z,100968.59
2023-01-10T03:33:32.868Z,100971.31
2023-01-10T03:38:42.113Z,100974.03
2023-01-10T03:44:25.534Z,100986.69
2023-01-10T03:49:24.897Z,100997.75
2023-01-10T03:54:21.478Z,101015.91
2023-01-10T03:59:21.277Z,101030.53
2023-01-10T04:04:19.395Z,101039.81
2023-01-10T04:09:39.186Z,101049.75
2023-01-10T04:14:35.965Z,101059.00
2023-01-10T04:25:29.027Z,101076.56
2023-01-10T04:30:52.131Z,101085.53
2023-01-10T04:53:56.381Z,101127.31
2023-01-10T05:04:09.543Z,101138.22
2023-01-10T05:09:07.537Z,101151.94
2023-01-10T05:14:04.295Z,101167.56
2023-01-10T06:26:13.528Z,101280.47
2023-01-10T06:31:09.936Z,101299.97
2023-01-10T06:37:04.713Z,101299.19
2023-01-10T06:44:54.113Z,101307.41
2023-01-10T07:05:43.679Z,101344.16
2023-01-10T07:11:13.319Z,101364.44
2023-01-10T07:16:34.478Z,101362.66
2023-01-10T07:28:01.239Z,101364.03
2023-01-10T07:33:09.585Z,101364.69
2023-01-10T07:38:56.768Z,101372.50
2023-01-10T08:35:01.550Z,101429.25
2023-01-10T16:24:40.548Z,101471.94
2023-01-10T20:23:16.355Z,101158.50
